createdAt,value
2019-04-26T00:01:56.661Z,14.28
2019-04-26T00:04:28.792Z,14.36
2019-04-26T00:07:00.359Z,14.30
2019-04-26T00:09:33.893Z,14.29
2019-04-26T00:12:07.201Z,14.22
2019-04-26T00:14:40.316Z,14.19
2019-04-26T00:17:13.622Z,14.18
2019-04-26T00:19:45.283Z,14.17
2019-04-26T00:22:17.249Z,14.13
2019-04-26T00:24:48.896Z,14.07
2019-04-26T00:27:21.270Z,14.02
2019-04-26T00:29:52.751Z,13.92
2019-04-26T00:32:23.447Z,13.93
2019-04-26T00:34:55.199Z,14.00
2019-04-26T00:37:25.805Z,14.13
2019-04-26T00:39:56.906Z,14.11
2019-04-26T00:42:27.964Z,14.08
2019-04-26T00:44:59.398Z,14.04
2019-04-26T00:47:32.136Z,14.02
2019-04-26T00:50:04.380Z,14.03
2019-04-26T00:52:36.809Z,14.00
2019-04-26T00:55:09.250Z,13.95
2019-04-26T00:57:42.432Z,13.97
2019-04-26T01:00:18.147Z,13.97
2019-04-26T01:02:52.223Z,14.04
2019-04-26T01:05:25.149Z,14.03
2019-04-26T01:07:57.884Z,14.02
2019-04-26T01:10:29.744Z,13.95
2019-04-26T01:13:01.391Z,13.90
2019-04-26T01:15:33.048Z,13.92
2019-04-26T01:18:05.017Z,13.89
2019-04-26T01:20:37.868Z,13.85
2019-04-26T01:23:12.375Z,13.84
2019-04-26T01:25:55.400Z,13.91
2019-04-26T01:28:54.292Z,13.89
2019-04-26T01:31:29.149Z,13.84
2019-04-26T01:34:01.027Z,13.80
2019-04-26T01:36:34.273Z,13.80
2019-04-26T01:39:19.734Z,13.73
2019-04-26T01:41:55.410Z,13.64
2019-04-26T01:44:47.612Z,13.63
2019-04-26T01:47:20.768Z,13.73
2019-04-26T01:49:53.431Z,13.64
2019-04-26T01:52:25.717Z,13.53
2019-04-26T01:54:57.588Z,13.56
2019-04-26T01:57:31.486Z,13.54
2019-04-26T02:00:21.180Z,13.52
2019-04-26T02:02:55.866Z,13.45
2019-04-26T02:05:28.465Z,13.49
2019-04-26T02:08:00.112Z,13.45
2019-04-26T02:10:32.668Z,13.39
2019-04-26T02:13:04.364Z,13.35
2019-04-26T02:15:36.214Z,13.27
2019-04-26T02:18:07.776Z,13.23
2019-04-26T02:20:52.976Z,13.25
2019-04-26T02:23:27.934Z,13.18
2019-04-26T02:26:01.262Z,13.15
2019-04-26T02:28:33.118Z,13.22
2019-04-26T02:31:04.975Z,13.15
2019-04-26T02:33:36.945Z,13.05
2019-04-26T02:36:08.398Z,12.97
2019-04-26T02:38:40.359Z,12.87
2019-04-26T02:41:12.118Z,12.89
2019-04-26T02:43:46.328Z,12.91
2019-04-26T02:46:22.870Z,12.91
2019-04-26T02:49:13.603Z,12.94
2019-04-26T02:51:54.057Z,13.00
2019-04-26T02:54:47.097Z,13.00
2019-04-26T02:57:38.877Z,13.11
2019-04-26T03:00:13.844Z,13.18
2019-04-26T03:02:49.653Z,13.38
2019-04-26T03:05:21.731Z,13.50
2019-04-26T03:08:05.308Z,13.65
2019-04-26T03:10:40.488Z,13.67
2019-04-26T03:13:16.824Z,13.71
2019-04-26T03:16:02.610Z,13.81
2019-04-26T03:18:45.119Z,13.81
2019-04-26T03:21:22.717Z,13.86
2019-04-26T03:24:03.278Z,13.81
2019-04-26T03:26:43.667Z,13.83
2019-04-26T03:29:26.055Z,13.85
2019-04-26T03:32:16.213Z,13.91
2019-04-26T03:35:20.096Z,13.92
2019-04-26T03:38:29.745Z,13.96
2019-04-26T03:41:14.453Z,13.95
2019-04-26T03:43:49.280Z,13.97
2019-04-26T03:46:37.706Z,14.15
2019-04-26T03:49:38.064Z,14.17
2019-04-26T03:52:18.614Z,14.11
2019-04-26T03:54:53.960Z,14.13
2019-04-26T03:57:36.901Z,14.18
2019-04-26T04:00:13.034Z,14.17
2019-04-26T04:02:55.559Z,14.27
2019-04-26T04:05:35.952Z,14.33
2019-04-26T04:08:11.566Z,14.42
2019-04-26T04:10:58.159Z,14.49
2019-04-26T04:14:00.176Z,14.65
2019-04-26T04:16:43.575Z,14.75
2019-04-26T04:19:25.762Z,14.97
2019-04-26T04:22:12.583Z,14.76
2019-04-26T04:24:49.169Z,14.91
2019-04-26T04:27:29.911Z,14.92
2019-04-26T04:30:13.546Z,14.97
2019-04-26T04:32:52.146Z,15.13
2019-04-26T04:35:26.790Z,15.28
2019-04-26T04:38:13.799Z,15.29
2019-04-26T04:40:53.498Z,15.36
2019-04-26T04:43:35.544Z,15.60
2019-04-26T04:46:18.039Z,15.62
2019-04-26T04:48:59.836Z,15.64
2019-04-26T04:51:44.871Z,15.84
2019-04-26T04:54:20.558Z,15.87
2019-04-26T04:57:09.929Z,16.03
2019-04-26T04:59:54.113Z,16.33
2019-04-26T05:02:46.698Z,16.27
2019-04-26T05:05:38.532Z,16.48
2019-04-26T05:08:22.597Z,16.59
2019-04-26T05:10:59.880Z,16.86
2019-04-26T05:13:43.793Z,16.92
2019-04-26T05:16:33.222Z,17.22
2019-04-26T05:19:30.765Z,17.31
2019-04-26T05:22:39.277Z,17.39
2019-04-26T05:25:53.501Z,17.34
2019-04-26T05:28:38.875Z,17.83
2019-04-26T05:31:24.080Z,17.89
2019-04-26T05:34:19.793Z,17.98
2019-04-26T05:37:15.723Z,18.31
2019-04-26T05:39:51.158Z,18.27
2019-04-26T05:42:44.215Z,18.39
2019-04-26T05:45:46.084Z,18.62
2019-04-26T05:48:34.634Z,18.75
2019-04-26T05:51:25.034Z,19.09
2019-04-26T05:54:36.516Z,19.06
2019-04-26T05:57:32.063Z,19.18
2019-04-26T06:00:58.268Z,19.08
2019-04-26T06:03:37.915Z,19.25
2019-04-26T06:06:20.317Z,19.41
2019-04-26T06:09:06.626Z,19.57
2019-04-26T06:11:54.727Z,19.48
2019-04-26T06:15:09.224Z,19.64
2019-04-26T06:17:45.885Z,19.76
2019-04-26T06:20:32.503Z,19.97
2019-04-26T06:23:33.638Z,19.95
2019-04-26T06:26:33.679Z,19.92
2019-04-26T06:29:17.401Z,19.98
2019-04-26T06:31:58.573Z,20.24
2019-04-26T06:34:36.163Z,20.22
2019-04-26T06:37:21.337Z,19.99
2019-04-26T06:40:02.254Z,20.10
2019-04-26T06:43:16.870Z,19.96
2019-04-26T06:46:00.491Z,20.12
2019-04-26T06:48:44.870Z,20.23
2019-04-26T06:51:24.837Z,20.30
2019-04-26T06:54:13.779Z,20.39
2019-04-26T06:56:49.907Z,20.48
2019-04-26T06:59:36.483Z,20.30
2019-04-26T07:02:18.942Z,20.57
2019-04-26T07:05:15.299Z,20.33
2019-04-26T07:07:58.599Z,20.38
2019-04-26T07:10:58.002Z,20.75
2019-04-26T07:13:52.805Z,20.86
2019-04-26T07:16:52.104Z,21.03
2019-04-26T07:20:06.060Z,21.23
2019-04-26T07:23:09.858Z,20.75
2019-04-26T07:26:02.207Z,20.82
2019-04-26T07:28:46.858Z,21.06
2019-04-26T07:31:36.648Z,21.01
2019-04-26T07:34:31.648Z,21.25
2019-04-26T07:37:41.640Z,21.32
2019-04-26T07:40:38.032Z,21.23
2019-04-26T07:43:29.451Z,21.44
2019-04-26T07:46:16.668Z,21.34
2019-04-26T07:49:10.264Z,21.53
2019-04-26T07:52:10.572Z,21.59
2019-04-26T07:55:11.203Z,21.55
2019-04-26T07:57:51.880Z,21.78
2019-04-26T08:00:44.674Z,21.62
2019-04-26T08:03:34.398Z,21.95
2019-04-26T08:06:07.492Z,21.86
2019-04-26T08:08:48.020Z,21.92
2019-04-26T08:11:22.872Z,22.06
2019-04-26T08:14:19.202Z,22.15
2019-04-26T08:17:20.971Z,22.40
2019-04-26T08:19:57.564Z,22.40
2019-04-26T08:22:33.846Z,22.47
2019-04-26T08:25:08.441Z,22.19
2019-04-26T08:27:42.101Z,22.40
2019-04-26T08:30:19.066Z,22.22
2019-04-26T08:32:54.348Z,22.37
2019-04-26T08:35:29.687Z,22.50
2019-04-26T08:38:08.275Z,22.67
2019-04-26T08:40:39.242Z,22.67
2019-04-26T08:43:30.910Z,22.85
2019-04-26T08:46:10.441Z,22.69
2019-04-26T08:48:51.582Z,22.81
2019-04-26T08:51:25.386Z,22.79
2019-04-26T08:53:58.911Z,22.55
2019-04-26T08:56:42.317Z,21.92
2019-04-26T08:59:44.480Z,22.04
2019-04-26T09:02:28.224Z,22.27
2019-04-26T09:05:22.007Z,22.60
2019-04-26T09:07:57.558Z,22.82
2019-04-26T09:10:32.991Z,22.95
2019-04-26T09:13:08.331Z,22.99
2019-04-26T09:16:08.910Z,22.65
2019-04-26T09:18:43.906Z,22.86
2019-04-26T09:21:17.556Z,22.90
2019-04-26T09:24:08.419Z,23.05
2019-04-26T09:26:46.551Z,23.05
2019-04-26T09:29:22.709Z,23.34
2019-04-26T09:31:56.581Z,23.39
2019-04-26T09:34:32.738Z,23.62
2019-04-26T09:37:04.400Z,23.64
2019-04-26T09:39:36.054Z,23.76
2019-04-26T09:42:09.665Z,23.75
2019-04-26T09:44:46.018Z,23.52
2019-04-26T09:47:22.174Z,23.68
2019-04-26T09:50:15.461Z,23.82
2019-04-26T09:52:48.213Z,23.71
2019-04-26T09:55:19.870Z,23.74
2019-04-26T09:57:53.510Z,23.69
2019-04-26T10:00:27.704Z,23.66
2019-04-26T10:03:01.080Z,23.58
2019-04-26T10:05:33.145Z,23.78
2019-04-26T10:08:08.331Z,23.89
2019-04-26T10:10:38.708Z,23.91
2019-04-26T10:13:16.404Z,23.86
2019-04-26T10:15:58.118Z,23.90
2019-04-26T10:18:29.853Z,23.86
2019-04-26T10:21:01.915Z,23.96
2019-04-26T10:23:33.776Z,23.97
2019-04-26T10:26:07.380Z,23.70
2019-04-26T10:28:39.141Z,23.74
2019-04-26T10:31:13.449Z,23.83
2019-04-26T10:33:44.100Z,23.97
2019-04-26T10:36:16.047Z,23.97
2019-04-26T10:38:47.760Z,23.81
2019-04-26T10:41:19.617Z,23.88
2019-04-26T10:43:51.028Z,23.75
2019-04-26T10:46:24.464Z,23.49
2019-04-26T10:49:08.200Z,22.98
2019-04-26T10:51:31.787Z,23.46
2019-04-26T10:54:07.380Z,23.76
2019-04-26T10:56:43.112Z,23.87
2019-04-26T10:59:17.727Z,23.60
2019-04-26T11:01:50.409Z,23.61
2019-04-26T11:04:22.275Z,23.33
2019-04-26T11:06:53.721Z,23.22
2019-04-26T11:09:25.783Z,23.52
2019-04-26T11:11:57.641Z,23.52
2019-04-26T11:14:29.499Z,23.57
2019-04-26T11:17:02.398Z,23.53
2019-04-26T11:19:35.431Z,23.59
2019-04-26T11:22:07.746Z,23.70
2019-04-26T11:24:40.422Z,23.98
2019-04-26T11:27:12.041Z,23.80
2019-04-26T11:29:53.207Z,24.18
2019-04-26T11:32:17.340Z,24.35
2019-04-26T11:34:49.017Z,24.38
2019-04-26T11:37:21.059Z,24.12
2019-04-26T11:39:53.136Z,24.39
2019-04-26T11:42:24.671Z,24.12
2019-04-26T11:45:05.698Z,24.40
2019-04-26T11:47:30.279Z,24.42
2019-04-26T11:50:01.884Z,24.29
2019-04-26T11:52:36.044Z,24.28
2019-04-26T11:55:07.859Z,24.58
2019-04-26T11:57:40.064Z,24.37
2019-04-26T12:00:13.319Z,24.20
2019-04-26T12:02:46.331Z,24.17
2019-04-26T12:05:39.161Z,24.42
2019-04-26T12:08:15.315Z,24.16
2019-04-26T12:10:47.279Z,24.12
2019-04-26T12:13:21.311Z,24.23
2019-04-26T12:15:53.355Z,24.51
2019-04-26T12:18:25.042Z,24.47
2019-04-26T12:20:57.072Z,24.41
2019-04-26T12:23:30.161Z,24.41
2019-04-26T12:26:01.823Z,24.39
2019-04-26T12:28:36.335Z,24.42
2019-04-26T12:31:06.989Z,24.45
2019-04-26T12:33:39.112Z,24.30
2019-04-26T12:36:13.248Z,24.12
2019-04-26T12:38:45.834Z,24.20
2019-04-26T12:41:24.932Z,24.34
2019-04-26T12:43:54.607Z,24.35
2019-04-26T12:46:44.029Z,24.36
2019-04-26T12:49:16.094Z,24.50
2019-04-26T12:51:48.811Z,24.35
2019-04-26T12:54:21.060Z,24.08
2019-04-26T12:56:52.702Z,24.16
2019-04-26T12:59:26.679Z,23.89
2019-04-26T13:02:05.325Z,23.74
2019-04-26T13:04:36.107Z,24.03
2019-04-26T13:07:08.697Z,23.88
2019-04-26T13:09:43.195Z,23.88
2019-04-26T13:12:16.658Z,23.96
2019-04-26T13:15:08.384Z,23.97
2019-04-26T13:17:41.881Z,23.79
2019-04-26T13:20:13.846Z,23.89
2019-04-26T13:22:46.471Z,23.89
2019-04-26T13:25:26.220Z,23.76
2019-04-26T13:27:51.881Z,23.70
2019-04-26T13:30:32.764Z,23.73
2019-04-26T13:32:56.830Z,23.81
2019-04-26T13:35:28.583Z,24.00
2019-04-26T13:38:00.039Z,24.12
2019-04-26T13:40:31.894Z,24.03
2019-04-26T13:43:03.444Z,24.01
2019-04-26T13:45:37.591Z,24.14
2019-04-26T13:48:19.202Z,24.01
2019-04-26T13:51:07.948Z,23.81
2019-04-26T13:53:40.114Z,23.71
2019-04-26T13:56:11.532Z,24.06
2019-04-26T13:58:43.174Z,24.07
2019-04-26T14:01:18.668Z,23.99
2019-04-26T14:03:49.145Z,23.95
2019-04-26T14:06:20.803Z,23.99
2019-04-26T14:08:57.419Z,24.12
2019-04-26T14:11:29.386Z,23.88
2019-04-26T14:14:01.818Z,23.72
2019-04-26T14:16:33.361Z,23.73
2019-04-26T14:19:06.243Z,23.56
2019-04-26T14:21:37.808Z,23.36
2019-04-26T14:24:27.375Z,23.48
2019-04-26T14:27:00.877Z,23.53
2019-04-26T14:29:33.882Z,23.34
2019-04-26T14:32:05.611Z,23.07
2019-04-26T14:34:40.349Z,23.02
2019-04-26T14:37:11.261Z,23.05
2019-04-26T14:39:50.719Z,23.16
2019-04-26T14:42:16.952Z,23.13
2019-04-26T14:44:49.694Z,23.04
2019-04-26T14:47:21.485Z,23.04
2019-04-26T14:49:53.546Z,23.11
2019-04-26T14:52:27.653Z,22.98
2019-04-26T14:54:59.932Z,22.86
2019-04-26T14:57:33.922Z,22.90
2019-04-26T15:00:07.950Z,22.96
2019-04-26T15:02:58.239Z,23.03
2019-04-26T15:05:38.152Z,22.83
2019-04-26T15:08:11.711Z,22.71
2019-04-26T15:10:48.897Z,22.75
2019-04-26T15:13:20.675Z,22.71
2019-04-26T15:15:52.569Z,22.65
2019-04-26T15:18:24.350Z,22.55
2019-04-26T15:20:57.068Z,22.43
2019-04-26T15:23:29.804Z,22.41
2019-04-26T15:26:03.064Z,22.25
2019-04-26T15:28:34.557Z,22.23
2019-04-26T15:31:06.512Z,22.16
2019-04-26T15:33:38.270Z,22.05
2019-04-26T15:36:12.880Z,22.10
2019-04-26T15:38:45.078Z,21.83
2019-04-26T15:41:18.259Z,22.01
2019-04-26T15:43:53.354Z,21.84
2019-04-26T15:46:42.643Z,21.81
2019-04-26T15:49:19.742Z,21.87
2019-04-26T15:51:51.293Z,21.76
2019-04-26T15:54:23.661Z,21.58
2019-04-26T15:56:55.353Z,21.81
2019-04-26T15:59:27.178Z,21.61
2019-04-26T16:02:02.293Z,21.48
2019-04-26T16:04:33.872Z,21.54
2019-04-26T16:07:05.732Z,21.44
2019-04-26T16:09:37.285Z,21.34
2019-04-26T16:12:10.678Z,21.29
2019-04-26T16:14:42.535Z,21.17
2019-04-26T16:17:14.087Z,21.22
2019-04-26T16:19:45.639Z,20.98
2019-04-26T16:22:17.395Z,20.97
2019-04-26T16:24:51.179Z,20.87
2019-04-26T16:27:24.608Z,20.80
2019-04-26T16:29:59.465Z,20.66
2019-04-26T16:32:54.061Z,20.73
2019-04-26T16:35:28.052Z,20.54
2019-04-26T16:37:59.910Z,20.41
2019-04-26T16:40:29.805Z,20.30
2019-04-26T16:43:01.559Z,20.14
2019-04-26T16:45:37.225Z,20.04
2019-04-26T16:48:06.814Z,19.97
2019-04-26T16:50:44.292Z,19.77
2019-04-26T16:53:36.333Z,19.63
2019-04-26T16:55:52.589Z,19.58
2019-04-26T16:58:24.648Z,19.45
2019-04-26T17:00:58.102Z,19.45
2019-04-26T17:03:29.141Z,19.32
2019-04-26T17:06:06.779Z,19.32
2019-04-26T17:08:34.082Z,19.14
2019-04-26T17:11:05.737Z,19.01
2019-04-26T17:13:48.346Z,18.89
2019-04-26T17:16:10.394Z,18.80
2019-04-26T17:18:42.713Z,18.74
2019-04-26T17:21:17.689Z,18.69
2019-04-26T17:23:55.148Z,18.60
2019-04-26T17:26:36.396Z,18.46
2019-04-26T17:29:07.624Z,18.43
2019-04-26T17:31:39.251Z,18.38
2019-04-26T17:34:12.566Z,18.29
2019-04-26T17:36:46.430Z,18.22
2019-04-26T17:39:18.488Z,18.18
2019-04-26T17:41:53.875Z,18.16
2019-04-26T17:44:26.569Z,18.16
2019-04-26T17:46:59.683Z,18.24
2019-04-26T17:49:34.602Z,18.24
2019-04-26T17:52:05.404Z,18.35
2019-04-26T17:54:46.040Z,18.40
2019-04-26T17:57:14.322Z,18.45
2019-04-26T17:59:47.696Z,18.39
2019-04-26T18:02:31.236Z,18.39
2019-04-26T18:04:58.878Z,18.40
2019-04-26T18:07:39.736Z,18.47
2019-04-26T18:09:56.910Z,18.36
2019-04-26T18:12:32.697Z,18.08
2019-04-26T18:15:06.259Z,17.99
2019-04-26T18:17:40.243Z,17.97
2019-04-26T18:23:15.441Z,18.10
2019-04-26T18:25:46.478Z,18.07
2019-04-26T18:28:18.163Z,18.02
2019-04-26T18:30:50.033Z,17.96
2019-04-26T18:33:25.865Z,17.92
2019-04-26T18:35:57.476Z,17.81
2019-04-26T18:38:28.693Z,17.70
2019-04-26T18:41:01.477Z,17.64
2019-04-26T18:43:33.248Z,17.49
2019-04-26T18:46:06.763Z,17.41
2019-04-26T18:48:40.978Z,17.31
2019-04-26T18:51:12.287Z,17.18
2019-04-26T18:53:58.033Z,17.11
2019-04-26T18:56:33.705Z,17.11
2019-04-26T18:59:07.385Z,17.06
2019-04-26T19:01:40.662Z,17.38
2019-04-26T19:04:13.578Z,17.18
2019-04-26T19:06:43.775Z,16.98
2019-04-26T19:09:17.550Z,16.89
2019-04-26T19:11:49.948Z,16.83
2019-04-26T19:14:24.477Z,16.77
2019-04-26T19:17:16.113Z,16.79
2019-04-26T19:19:51.556Z,16.76
2019-04-26T19:22:23.406Z,16.69
2019-04-26T19:24:57.505Z,16.64
2019-04-26T19:27:29.109Z,16.64
2019-04-26T19:30:02.832Z,16.56
2019-04-26T19:32:39.659Z,16.57
2019-04-26T19:35:13.888Z,16.47
2019-04-26T19:37:43.401Z,16.42
2019-04-26T19:40:15.325Z,16.42
2019-04-26T19:42:51.317Z,16.40
2019-04-26T19:45:26.411Z,16.32
2019-04-26T19:48:03.293Z,16.34
2019-04-26T19:50:50.250Z,16.38
2019-04-26T19:53:24.933Z,16.30
2019-04-26T19:56:17.497Z,16.28
2019-04-26T19:58:57.383Z,16.29
2019-04-26T20:01:25.141Z,16.15
2019-04-26T20:03:56.535Z,16.14
2019-04-26T20:06:28.290Z,16.38
2019-04-26T20:09:01.847Z,16.47
2019-04-26T20:11:35.390Z,16.37
2019-04-26T20:14:07.339Z,16.23
2019-04-26T20:16:40.790Z,16.06
2019-04-26T20:19:17.757Z,16.06
2019-04-26T20:21:49.782Z,16.09
2019-04-26T20:24:22.234Z,16.05
2019-04-26T20:26:52.836Z,16.03
2019-04-26T20:29:23.932Z,16.18
2019-04-26T20:31:56.983Z,16.08
2019-04-26T20:34:28.481Z,16.01
2019-04-26T20:37:01.478Z,16.08
2019-04-26T20:39:33.819Z,15.92
2019-04-26T20:42:05.489Z,15.80
2019-04-26T20:44:50.314Z,15.75
2019-04-26T20:47:14.327Z,15.67
2019-04-26T20:49:49.963Z,15.71
2019-04-26T20:52:21.465Z,15.46
2019-04-26T20:54:53.707Z,15.44
2019-04-26T20:57:26.692Z,15.47
2019-04-26T21:00:01.420Z,15.36
2019-04-26T21:02:30.197Z,15.26
2019-04-26T21:05:02.117Z,15.32
2019-04-26T21:07:36.407Z,15.22
2019-04-26T21:10:08.463Z,15.16
2019-04-26T21:12:41.661Z,15.21
2019-04-26T21:15:15.796Z,15.12
2019-04-26T21:17:46.405Z,15.10
2019-04-26T21:20:17.172Z,15.04
2019-04-26T21:22:48.366Z,14.99
2019-04-26T21:25:21.570Z,15.01
2019-04-26T21:27:54.454Z,15.05
2019-04-26T21:30:33.578Z,14.92
2019-04-26T21:33:08.452Z,14.88
2019-04-26T21:35:42.899Z,14.92
2019-04-26T21:38:33.681Z,14.79
2019-04-26T21:41:14.176Z,14.66
2019-04-26T21:43:47.458Z,14.69
2019-04-26T21:46:20.246Z,14.54
2019-04-26T21:48:53.429Z,14.52
2019-04-26T21:51:25.866Z,14.54
2019-04-26T21:53:56.948Z,14.52
2019-04-26T21:56:28.157Z,14.51
2019-04-26T21:58:58.850Z,14.48
2019-04-26T22:01:32.970Z,14.47
2019-04-26T22:04:06.211Z,14.43
2019-04-26T22:06:37.807Z,14.57
2019-04-26T22:09:14.550Z,14.46
2019-04-26T22:11:49.477Z,14.51
2019-04-26T22:14:21.577Z,14.41
2019-04-26T22:17:14.436Z,14.32
2019-04-26T22:19:49.891Z,14.30
2019-04-26T22:22:41.468Z,14.43
2019-04-26T22:25:12.953Z,14.33
2019-04-26T22:27:44.435Z,14.41
2019-04-26T22:30:17.924Z,14.46
2019-04-26T22:32:54.610Z,14.49
2019-04-26T22:35:22.670Z,14.50
2019-04-26T22:37:54.189Z,14.57
2019-04-26T22:40:24.924Z,14.64
2019-04-26T22:43:05.293Z,14.59
2019-04-26T22:45:44.130Z,14.58
2019-04-26T22:48:23.042Z,14.63
2019-04-26T22:50:52.165Z,14.52
2019-04-26T22:53:25.803Z,14.46
2019-04-26T22:55:57.810Z,14.48
2019-04-26T22:58:29.827Z,14.50
2019-04-26T23:01:03.327Z,14.45
2019-04-26T23:03:36.584Z,14.38
2019-04-26T23:06:11.695Z,14.33
2019-04-26T23:08:44.430Z,14.33
2019-04-26T23:11:16.289Z,14.31
2019-04-26T23:14:03.378Z,14.30
2019-04-26T23:17:01.651Z,14.27
2019-04-26T23:19:24.912Z,14.27
2019-04-26T23:22:00.801Z,14.20
2019-04-26T23:24:32.452Z,14.15
2019-04-26T23:27:04.418Z,14.14
2019-04-26T23:29:36.274Z,14.15
2019-04-26T23:32:12.113Z,14.13
2019-04-26T23:34:41.918Z,14.13
2019-04-26T23:37:13.225Z,14.02
2019-04-26T23:39:49.789Z,13.93
2019-04-26T23:42:17.937Z,13.91
2019-04-26T23:44:49.900Z,13.85
2019-04-26T23:47:25.080Z,13.85
2019-04-26T23:49:57.000Z,13.72
2019-04-26T23:52:28.025Z,13.71
2019-04-26T23:54:59.542Z,13.70
2019-04-26T23:57:31.290Z,13.73
